createdAt,value
2018-04-13T00:01:41.586Z,3.20
2018-04-13T00:04:09.064Z,3.20
2018-04-13T00:06:36.632Z,3.50
2018-04-13T00:09:04.140Z,3.30
2018-04-13T00:11:31.627Z,3.67
2018-04-13T00:13:59.109Z,3.37
2018-04-13T00:16:26.626Z,3.27
2018-04-13T00:18:54.135Z,3.40
2018-04-13T00:21:21.628Z,3.70
2018-04-13T00:23:49.135Z,3.27
2018-04-13T00:26:16.617Z,3.37
2018-04-13T00:28:44.096Z,3.97
2018-04-13T00:31:11.604Z,3.73
2018-04-13T00:33:39.083Z,3.63
2018-04-13T00:36:06.573Z,3.87
2018-04-13T00:38:34.109Z,3.10
2018-04-13T00:41:01.597Z,3.23
2018-04-13T00:43:29.100Z,3.30
2018-04-13T00:45:56.613Z,3.30
2018-04-13T00:48:24.117Z,3.63
2018-04-13T00:50:51.596Z,3.57
2018-04-13T00:53:28.908Z,3.53
2018-04-13T00:55:56.393Z,3.73
2018-04-13T00:58:23.881Z,3.60
2018-04-13T01:00:51.399Z,3.60
2018-04-13T01:03:18.934Z,3.27
2018-04-13T01:05:46.420Z,3.27
2018-04-13T01:08:13.935Z,3.20
2018-04-13T01:10:41.421Z,3.40
2018-04-13T01:13:08.909Z,3.57
2018-04-13T01:15:36.422Z,3.40
2018-04-13T01:18:03.909Z,3.17
2018-04-13T01:20:31.404Z,3.13
2018-04-13T01:22:59.822Z,3.60
2018-04-13T01:25:27.325Z,3.10
2018-04-13T01:27:54.813Z,3.30
2018-04-13T01:30:22.317Z,3.83
2018-04-13T01:32:49.803Z,3.97
2018-04-13T01:35:17.285Z,3.50
2018-04-13T01:37:44.797Z,3.63
2018-04-13T01:40:12.285Z,3.33
2018-04-13T01:42:39.765Z,3.57
2018-04-13T01:45:08.261Z,3.33
2018-04-13T01:47:35.745Z,3.30
2018-04-13T01:50:03.229Z,3.13
2018-04-13T01:52:30.746Z,3.47
2018-04-13T01:54:58.228Z,3.57
2018-04-13T01:57:25.711Z,3.70
2018-04-13T01:59:53.245Z,4.07
2018-04-13T02:02:20.732Z,3.80
2018-04-13T02:04:48.223Z,3.17
2018-04-13T02:07:15.733Z,3.70
2018-04-13T02:09:43.219Z,3.40
2018-04-13T02:12:10.728Z,3.37
2018-04-13T02:14:38.234Z,3.60
2018-04-13T02:17:05.736Z,3.33
2018-04-13T02:19:33.220Z,3.43
2018-04-13T02:22:00.730Z,3.87
2018-04-13T02:24:28.213Z,3.30
2018-04-13T02:26:55.705Z,3.40
2018-04-13T02:29:23.216Z,4.03
2018-04-13T02:31:50.706Z,4.07
2018-04-13T02:34:18.225Z,3.73
2018-04-13T02:36:46.726Z,3.40
2018-04-13T02:39:14.215Z,3.27
2018-04-13T02:41:41.718Z,3.50
2018-04-13T02:44:09.224Z,3.40
2018-04-13T02:46:36.718Z,3.53
2018-04-13T02:49:04.206Z,3.67
2018-04-13T02:51:31.726Z,3.53
2018-04-13T02:53:59.225Z,3.70
2018-04-13T02:56:26.708Z,3.50
2018-04-13T02:58:54.227Z,3.83
2018-04-13T03:01:21.711Z,3.10
2018-04-13T03:03:49.209Z,3.40
2018-04-13T03:06:16.716Z,3.67
2018-04-13T03:08:44.201Z,3.80
2018-04-13T03:11:11.691Z,3.60
2018-04-13T03:13:39.205Z,3.07
2018-04-13T03:16:06.699Z,3.70
2018-04-13T03:18:34.187Z,3.60
2018-04-13T03:21:01.688Z,3.73
2018-04-13T03:23:29.199Z,3.47
2018-04-13T03:25:56.690Z,3.90
2018-04-13T03:28:24.205Z,4.00
2018-04-13T03:30:51.708Z,4.00
2018-04-13T03:33:19.202Z,3.97
2018-04-13T03:35:46.721Z,4.27
2018-04-13T03:38:14.191Z,3.57
2018-04-13T03:40:41.725Z,3.53
2018-04-13T03:43:09.324Z,3.47
2018-04-13T03:45:36.823Z,4.03
2018-04-13T03:48:04.303Z,3.97
2018-04-13T03:50:31.808Z,4.10
2018-04-13T03:52:59.299Z,4.20
2018-04-13T03:55:27.130Z,4.13
2018-04-13T03:57:54.752Z,4.77
2018-04-13T04:00:22.573Z,4.20
2018-04-13T04:02:50.097Z,4.60
2018-04-13T04:05:17.609Z,5.30
2018-04-13T04:07:45.095Z,6.00
2018-04-13T04:10:12.581Z,6.37
2018-04-13T04:12:40.114Z,5.90
2018-04-13T04:15:07.605Z,6.90
2018-04-13T04:17:35.089Z,6.30
2018-04-13T04:20:14.561Z,6.83
2018-04-13T04:25:45.510Z,6.73
2018-04-13T04:28:12.993Z,7.17
2018-04-13T04:30:40.476Z,7.07
2018-04-13T04:33:07.997Z,6.50
2018-04-13T04:35:35.482Z,6.30
2018-04-13T04:38:02.968Z,6.77
2018-04-13T04:40:30.490Z,6.53
2018-04-13T04:42:57.980Z,6.00
2018-04-13T04:45:25.460Z,6.00
2018-04-13T04:47:52.980Z,6.93
2018-04-13T04:50:20.474Z,6.10
2018-04-13T04:52:47.960Z,6.27
2018-04-13T04:55:15.516Z,6.87
2018-04-13T04:57:43.010Z,6.17
2018-04-13T05:00:10.497Z,5.70
2018-04-13T05:02:38.016Z,7.17
2018-04-13T05:05:05.501Z,6.03
2018-04-13T05:07:33.001Z,6.43
2018-04-13T05:10:00.509Z,6.60
2018-04-13T05:12:27.989Z,6.80
2018-04-13T05:14:55.473Z,6.60
2018-04-13T05:17:22.986Z,6.10
2018-04-13T05:19:50.478Z,7.57
2018-04-13T05:22:17.970Z,6.27
2018-04-13T05:24:45.482Z,6.20
2018-04-13T05:27:12.964Z,6.87
2018-04-13T05:29:40.457Z,6.90
2018-04-13T05:32:08.950Z,6.87
2018-04-13T05:34:36.442Z,6.73
2018-04-13T05:37:03.925Z,6.47
2018-04-13T05:39:31.432Z,6.93
2018-04-13T05:41:58.921Z,9.23
2018-04-13T05:44:26.423Z,8.20
2018-04-13T05:46:53.938Z,6.70
2018-04-13T05:49:21.421Z,6.10
2018-04-13T05:51:48.905Z,6.07
2018-04-13T05:54:16.422Z,6.37
2018-04-13T05:56:43.908Z,5.70
2018-04-13T05:59:11.403Z,6.60
2018-04-13T06:01:38.913Z,5.87
2018-04-13T06:04:06.397Z,6.37
2018-04-13T06:06:33.914Z,5.70
2018-04-13T06:09:01.476Z,5.53
2018-04-13T06:11:28.966Z,5.93
2018-04-13T06:13:56.457Z,5.03
2018-04-13T06:16:23.964Z,5.90
2018-04-13T06:18:51.498Z,5.23
2018-04-13T06:21:18.969Z,5.20
2018-04-13T06:23:46.505Z,5.67
2018-04-13T06:26:14.011Z,6.00
2018-04-13T06:28:41.519Z,5.20
2018-04-13T06:31:09.028Z,5.33
2018-04-13T06:33:36.508Z,5.00
2018-04-13T06:36:03.998Z,5.63
2018-04-13T06:38:31.537Z,5.67
2018-04-13T06:40:59.034Z,5.50
2018-04-13T06:43:26.515Z,4.70
2018-04-13T06:45:54.029Z,5.30
2018-04-13T06:48:21.545Z,5.47
2018-04-13T06:50:49.032Z,6.60
2018-04-13T06:53:16.544Z,5.57
2018-04-13T06:55:44.093Z,5.60
2018-04-13T06:58:11.580Z,5.50
2018-04-13T07:00:39.098Z,5.57
2018-04-13T07:03:06.586Z,5.70
2018-04-13T07:05:34.104Z,5.50
2018-04-13T07:08:01.617Z,5.63
2018-04-13T07:10:29.101Z,5.30
2018-04-13T07:12:56.602Z,5.43
2018-04-13T07:15:24.114Z,5.73
2018-04-13T07:17:51.605Z,5.97
2018-04-13T07:20:19.102Z,5.60
2018-04-13T07:22:46.614Z,5.17
2018-04-13T07:25:14.102Z,4.80
2018-04-13T07:27:41.598Z,4.83
2018-04-13T07:30:09.142Z,4.83
2018-04-13T07:32:36.705Z,4.60
2018-04-13T07:35:04.240Z,3.73
2018-04-13T07:37:31.758Z,3.57
2018-04-13T07:39:59.246Z,3.43
2018-04-13T07:42:26.765Z,6.63
2018-04-13T07:44:54.292Z,3.70
2018-04-13T07:47:21.801Z,3.60
2018-04-13T07:49:49.281Z,3.17
2018-04-13T07:52:16.813Z,3.47
2018-04-13T07:54:44.297Z,2.50
2018-04-13T07:57:11.790Z,2.10
2018-04-13T07:59:39.341Z,2.27
2018-04-13T08:02:06.818Z,2.37
2018-04-13T08:04:35.205Z,2.30
2018-04-13T08:07:02.713Z,2.22
2018-04-13T08:09:30.204Z,2.30
2018-04-13T08:11:57.689Z,2.17
2018-04-13T08:14:25.200Z,2.20
2018-04-13T08:16:52.689Z,2.15
2018-04-13T08:19:20.163Z,1.87
2018-04-13T08:21:47.665Z,2.05
2018-04-13T08:24:15.150Z,1.97
2018-04-13T08:26:42.646Z,1.90
2018-04-13T08:29:10.152Z,1.83
2018-04-13T08:31:37.661Z,2.20
2018-04-13T08:34:05.146Z,1.90
2018-04-13T08:36:32.655Z,1.80
2018-04-13T08:39:00.149Z,1.60
2018-04-13T08:41:27.645Z,1.70
2018-04-13T08:43:55.163Z,2.00
2018-04-13T08:46:22.644Z,2.00
2018-04-13T08:48:50.244Z,1.63
2018-04-13T08:51:17.661Z,1.80
2018-04-13T08:53:45.157Z,2.03
2018-04-13T08:56:12.650Z,2.43
2018-04-13T08:58:40.161Z,2.20
2018-04-13T09:01:07.641Z,2.00
2018-04-13T09:03:35.135Z,2.20
2018-04-13T09:06:02.644Z,2.40
2018-04-13T09:08:30.129Z,2.20
2018-04-13T09:10:57.613Z,1.90
2018-04-13T09:13:26.939Z,2.07
2018-04-13T09:15:54.425Z,1.77
2018-04-13T09:18:21.914Z,2.08
2018-04-13T09:20:49.470Z,2.20
2018-04-13T09:23:16.946Z,1.80
2018-04-13T09:25:44.438Z,2.27
2018-04-13T09:28:11.953Z,1.80
2018-04-13T09:30:39.433Z,1.80
2018-04-13T09:33:06.925Z,1.77
2018-04-13T09:35:34.459Z,1.90
2018-04-13T09:38:01.970Z,1.97
2018-04-13T09:40:29.466Z,2.00
2018-04-13T09:42:56.976Z,1.60
2018-04-13T09:45:24.467Z,1.63
2018-04-13T09:47:51.991Z,2.03
2018-04-13T09:50:20.466Z,1.70
2018-04-13T09:52:47.948Z,1.83
2018-04-13T09:55:15.429Z,1.90
2018-04-13T09:57:42.934Z,1.80
2018-04-13T10:00:10.409Z,2.53
2018-04-13T10:02:37.892Z,2.43
2018-04-13T10:05:10.949Z,2.40
2018-04-13T10:07:38.432Z,2.40
2018-04-13T10:10:05.972Z,2.20
2018-04-13T10:12:33.478Z,2.17
2018-04-13T10:15:00.961Z,2.60
2018-04-13T10:17:28.445Z,2.40
2018-04-13T10:19:56.004Z,2.50
2018-04-13T10:22:23.492Z,3.07
2018-04-13T10:24:50.968Z,2.90
2018-04-13T10:27:18.480Z,3.43
2018-04-13T10:29:45.981Z,3.43
2018-04-13T10:32:13.489Z,4.00
2018-04-13T10:34:41.227Z,3.40
2018-04-13T10:37:08.777Z,3.70
2018-04-13T10:39:36.261Z,3.23
2018-04-13T10:42:03.864Z,3.77
2018-04-13T10:44:31.378Z,3.83
2018-04-13T10:46:58.971Z,4.13
2018-04-13T10:49:26.627Z,3.77
2018-04-13T10:51:54.188Z,3.60
2018-04-13T10:54:21.672Z,3.57
2018-04-13T10:56:49.277Z,3.87
2018-04-13T10:59:16.845Z,4.13
2018-04-13T11:01:44.347Z,3.97
2018-04-13T11:04:11.869Z,4.30
2018-04-13T11:06:39.460Z,4.20
2018-04-13T11:09:07.082Z,4.60
2018-04-13T11:11:34.594Z,4.20
2018-04-13T11:14:02.084Z,3.90
2018-04-13T11:16:29.573Z,4.57
2018-04-13T11:18:57.161Z,4.50
2018-04-13T11:21:24.728Z,5.00
2018-04-13T11:23:52.220Z,4.83
2018-04-13T11:26:19.765Z,5.30
2018-04-13T11:28:47.337Z,5.17
2018-04-13T11:31:14.889Z,4.60
2018-04-13T11:33:42.518Z,5.23
2018-04-13T11:36:10.080Z,4.70
2018-04-13T11:38:37.581Z,4.97
2018-04-13T11:41:05.134Z,5.07
2018-04-13T11:43:32.665Z,4.97
2018-04-13T11:46:00.284Z,5.20
2018-04-13T11:48:27.826Z,5.13
2018-04-13T11:50:55.479Z,6.10
2018-04-13T11:53:23.026Z,5.57
2018-04-13T11:55:50.570Z,5.63
2018-04-13T11:58:18.148Z,6.13
2018-04-13T12:00:45.629Z,6.13
2018-04-13T12:03:13.133Z,5.40
2018-04-13T12:05:40.629Z,6.17
2018-04-13T12:08:08.120Z,6.00
2018-04-13T12:10:35.642Z,5.63
2018-04-13T12:13:03.138Z,6.00
2018-04-13T12:15:30.675Z,6.30
2018-04-13T12:17:58.189Z,6.57
2018-04-13T12:20:25.701Z,6.40
2018-04-13T12:22:53.196Z,5.67
2018-04-13T12:25:20.717Z,6.33
2018-04-13T12:27:48.209Z,7.27
2018-04-13T12:30:15.732Z,7.13
2018-04-13T12:32:43.287Z,8.10
2018-04-13T12:35:10.773Z,8.23
2018-04-13T12:37:38.269Z,9.10
2018-04-13T12:40:05.824Z,9.87
2018-04-13T12:42:33.302Z,8.93
2018-04-13T12:45:00.793Z,9.17
2018-04-13T12:47:28.320Z,9.20
2018-04-13T12:49:55.969Z,9.07
2018-04-13T12:52:23.461Z,8.80
2018-04-13T12:54:51.143Z,8.90
2018-04-13T12:57:18.465Z,8.67
2018-04-13T12:59:45.988Z,8.83
2018-04-13T13:02:13.567Z,9.70
2018-04-13T13:04:41.057Z,9.03
2018-04-13T13:07:08.546Z,9.27
2018-04-13T13:09:36.084Z,9.20
2018-04-13T13:12:03.568Z,9.43
2018-04-13T13:14:31.061Z,9.90
2018-04-13T13:16:58.597Z,9.10
2018-04-13T13:19:26.210Z,9.80
2018-04-13T13:21:53.706Z,9.40
2018-04-13T13:24:21.257Z,9.93
2018-04-13T13:26:48.831Z,11.63
2018-04-13T13:29:17.248Z,10.07
2018-04-13T13:31:44.781Z,10.53
2018-04-13T13:34:12.302Z,12.87
2018-04-13T13:36:39.814Z,13.73
2018-04-13T13:39:07.443Z,9.83
2018-04-13T13:41:35.131Z,6.53
2018-04-13T13:44:02.883Z,2.87
2018-04-13T13:46:30.437Z,2.33
2018-04-13T13:48:57.926Z,2.10
2018-04-13T13:51:25.418Z,2.20
2018-04-13T13:53:52.933Z,2.37
2018-04-13T13:56:20.567Z,2.50
2018-04-13T13:58:48.061Z,2.30
2018-04-13T14:01:16.201Z,2.20
2018-04-13T14:03:43.689Z,2.30
2018-04-13T14:06:11.205Z,2.27
2018-04-13T14:08:38.717Z,2.00
2018-04-13T14:11:06.197Z,2.13
2018-04-13T14:13:33.690Z,2.20
2018-04-13T14:16:01.211Z,2.10
2018-04-13T14:18:28.714Z,2.10
2018-04-13T14:20:56.222Z,2.00
2018-04-13T14:23:23.736Z,1.97
2018-04-13T14:25:51.228Z,1.70
2018-04-13T14:28:18.709Z,2.20
2018-04-13T14:30:46.215Z,1.87
2018-04-13T14:33:13.712Z,2.23
2018-04-13T14:35:41.204Z,1.90
2018-04-13T14:38:08.717Z,2.00
2018-04-13T14:40:36.210Z,2.37
2018-04-13T14:43:03.701Z,1.90
2018-04-13T14:45:31.218Z,2.10
2018-04-13T14:47:58.709Z,2.00
2018-04-13T14:50:26.197Z,2.03
2018-04-13T14:52:53.711Z,2.30
2018-04-13T14:55:21.265Z,2.03
2018-04-13T14:57:48.743Z,2.00
2018-04-13T15:00:16.253Z,1.90
2018-04-13T15:02:43.737Z,2.10
2018-04-13T15:05:11.229Z,2.07
2018-04-13T15:07:38.792Z,2.00
2018-04-13T15:10:06.291Z,2.10
2018-04-13T15:12:33.780Z,2.17
2018-04-13T15:15:01.462Z,1.93
2018-04-13T15:17:29.034Z,2.00
2018-04-13T15:19:56.484Z,1.97
2018-04-13T15:22:23.993Z,2.20
2018-04-13T15:24:51.495Z,2.10
2018-04-13T15:27:19.007Z,2.20
2018-04-13T15:29:46.517Z,2.20
2018-04-13T15:32:14.002Z,1.83
2018-04-13T15:34:41.493Z,1.90
2018-04-13T15:37:09.071Z,1.80
2018-04-13T15:39:36.561Z,1.90
2018-04-13T15:42:04.038Z,2.40
2018-04-13T15:44:32.538Z,2.00
2018-04-13T15:47:00.025Z,2.30
2018-04-13T15:49:27.530Z,2.00
2018-04-13T15:51:55.034Z,2.30
2018-04-13T15:54:22.531Z,1.77
2018-04-13T15:56:50.027Z,2.00
2018-04-13T15:59:17.532Z,2.00
2018-04-13T16:01:45.018Z,2.10
2018-04-13T16:04:13.687Z,1.93
2018-04-13T16:06:41.220Z,2.00
2018-04-13T16:09:08.727Z,1.90
2018-04-13T16:11:36.225Z,2.20
2018-04-13T16:14:03.749Z,1.97
2018-04-13T16:16:31.235Z,2.10
2018-04-13T16:18:58.725Z,2.17
2018-04-13T16:21:26.251Z,1.83
2018-04-13T16:23:53.736Z,1.87
2018-04-13T16:26:21.226Z,1.90
2018-04-13T16:28:48.737Z,2.20
2018-04-13T16:31:16.234Z,2.30
2018-04-13T16:33:43.722Z,2.00
2018-04-13T16:36:11.263Z,2.00
2018-04-13T16:38:38.762Z,2.07
2018-04-13T16:41:06.245Z,2.03
2018-04-13T16:43:33.757Z,1.90
2018-04-13T16:46:01.233Z,1.80
2018-04-13T16:48:28.724Z,1.87
2018-04-13T16:50:56.284Z,1.87
2018-04-13T16:53:23.813Z,1.93
2018-04-13T16:55:51.297Z,2.00
2018-04-13T16:58:18.847Z,1.80
2018-04-13T17:00:46.332Z,2.10
2018-04-13T17:03:13.817Z,2.00
2018-04-13T17:05:41.330Z,2.00
2018-04-13T17:08:08.818Z,2.10
2018-04-13T17:10:36.298Z,1.80
2018-04-13T17:13:03.813Z,2.03
2018-04-13T17:15:31.288Z,1.93
2018-04-13T17:17:58.772Z,2.10
2018-04-13T17:20:26.290Z,2.10
2018-04-13T17:22:54.705Z,1.90
2018-04-13T17:25:22.194Z,2.10
2018-04-13T17:27:50.491Z,1.80
2018-04-13T17:30:17.981Z,2.00
2018-04-13T17:32:45.466Z,2.13
2018-04-13T17:35:12.978Z,2.10
2018-04-13T17:37:40.461Z,2.10
2018-04-13T17:40:07.946Z,2.33
2018-04-13T17:42:35.461Z,2.10
2018-04-13T17:45:02.949Z,2.33
2018-04-13T17:47:30.441Z,1.80
2018-04-13T17:49:57.956Z,1.87
2018-04-13T17:52:25.627Z,1.77
2018-04-13T17:54:53.103Z,1.93
2018-04-13T17:57:20.617Z,2.10
2018-04-13T17:59:48.096Z,1.87
2018-04-13T18:02:15.576Z,2.00
2018-04-13T18:04:43.080Z,1.97
2018-04-13T18:07:10.568Z,2.07
2018-04-13T18:09:38.052Z,2.20
2018-04-13T18:12:05.561Z,1.93
2018-04-13T18:14:33.036Z,1.80
2018-04-13T18:17:00.532Z,2.00
2018-04-13T18:19:28.036Z,2.03
2018-04-13T18:21:55.522Z,1.93
2018-04-13T18:24:23.017Z,2.10
2018-04-13T18:26:50.537Z,2.00
2018-04-13T18:29:18.021Z,2.10
2018-04-13T18:31:45.500Z,2.10
2018-04-13T18:34:13.073Z,2.07
2018-04-13T18:36:40.570Z,2.27
2018-04-13T18:39:09.054Z,1.90
2018-04-13T18:41:36.561Z,2.10
2018-04-13T18:44:04.107Z,2.13
2018-04-13T18:46:31.599Z,2.10
2018-04-13T18:48:59.113Z,2.00
2018-04-13T18:51:26.596Z,1.80
2018-04-13T18:53:54.072Z,2.00
2018-04-13T18:56:21.581Z,2.03
2018-04-13T18:58:49.064Z,2.03
2018-04-13T19:01:16.552Z,2.00
2018-04-13T19:03:44.066Z,1.93
2018-04-13T19:06:11.554Z,2.07
2018-04-13T19:08:39.042Z,1.97
2018-04-13T19:11:06.558Z,1.90
2018-04-13T19:13:34.057Z,2.00
2018-04-13T19:16:01.564Z,1.87
2018-04-13T19:18:29.073Z,2.00
2018-04-13T19:20:56.567Z,1.90
2018-04-13T19:23:24.056Z,2.10
2018-04-13T19:25:51.667Z,2.27
2018-04-13T19:28:19.156Z,2.20
2018-04-13T19:30:46.640Z,2.00
2018-04-13T19:33:14.148Z,1.80
2018-04-13T19:35:42.547Z,2.23
2018-04-13T19:38:10.029Z,1.90
2018-04-13T19:40:37.537Z,2.00
2018-04-13T19:43:05.100Z,2.10
2018-04-13T19:45:32.586Z,2.20
2018-04-13T19:48:00.133Z,2.20
2018-04-13T19:50:27.617Z,2.20
2018-04-13T19:52:55.106Z,1.73
2018-04-13T19:55:22.623Z,1.90
2018-04-13T19:57:50.120Z,2.10
2018-04-13T20:00:17.663Z,1.83
2018-04-13T20:02:45.177Z,1.87
2018-04-13T20:05:12.673Z,2.20
2018-04-13T20:07:40.161Z,2.00
2018-04-13T20:10:07.698Z,2.40
2018-04-13T20:12:35.182Z,2.00
2018-04-13T20:15:02.669Z,2.33
2018-04-13T20:17:30.180Z,2.20
2018-04-13T20:19:57.665Z,2.00
2018-04-13T20:22:25.144Z,1.90
2018-04-13T20:24:52.656Z,2.33
2018-04-13T20:27:20.183Z,2.07
2018-04-13T20:29:47.654Z,2.23
2018-04-13T20:32:15.164Z,2.10
2018-04-13T20:34:42.650Z,1.93
2018-04-13T20:37:10.143Z,2.20
2018-04-13T20:39:37.648Z,2.00
2018-04-13T20:42:05.125Z,1.93
2018-04-13T20:44:32.616Z,1.80
2018-04-13T20:47:00.209Z,2.07
2018-04-13T20:49:27.688Z,2.37
2018-04-13T20:51:55.168Z,2.00
2018-04-13T20:54:22.684Z,2.20
2018-04-13T20:56:50.173Z,2.13
2018-04-13T20:59:17.658Z,1.90
2018-04-13T21:01:45.193Z,1.97
2018-04-13T21:04:12.673Z,1.90
2018-04-13T21:06:40.158Z,2.20
2018-04-13T21:09:07.669Z,2.30
2018-04-13T21:11:35.153Z,1.80
2018-04-13T21:14:02.645Z,2.10
2018-04-13T21:16:30.166Z,1.80
2018-04-13T21:18:57.653Z,1.97
2018-04-13T21:21:25.146Z,2.07
2018-04-13T21:23:52.666Z,2.00
2018-04-13T21:26:20.161Z,2.40
2018-04-13T21:28:47.649Z,2.30
2018-04-13T21:31:15.169Z,2.10
2018-04-13T21:33:42.666Z,2.30
2018-04-13T21:36:10.157Z,2.10
2018-04-13T21:38:37.670Z,2.17
2018-04-13T21:41:05.162Z,2.07
2018-04-13T21:43:32.648Z,1.63
2018-04-13T21:46:00.191Z,2.30
2018-04-13T21:48:27.682Z,2.13
2018-04-13T21:50:55.169Z,2.20
2018-04-13T21:53:22.677Z,1.87
2018-04-13T21:55:50.175Z,2.10
2018-04-13T21:58:17.661Z,2.07
2018-04-13T22:00:45.178Z,1.90
2018-04-13T22:03:12.678Z,2.20
2018-04-13T22:05:40.178Z,2.20
2018-04-13T22:08:07.691Z,2.30
2018-04-13T22:10:35.182Z,2.03
2018-04-13T22:13:14.466Z,2.00
2018-04-13T22:15:41.966Z,2.20
2018-04-13T22:18:09.458Z,2.20
2018-04-13T22:20:37.033Z,1.90
2018-04-13T22:23:04.481Z,2.13
2018-04-13T22:25:31.959Z,2.20
2018-04-13T22:27:59.478Z,2.27
2018-04-13T22:30:26.956Z,1.93
2018-04-13T22:32:54.441Z,2.20
2018-04-13T22:35:21.948Z,2.30
2018-04-13T22:37:49.437Z,2.60
2018-04-13T22:40:16.920Z,2.47
2018-04-13T22:42:44.453Z,2.20
2018-04-13T22:45:11.948Z,2.17
2018-04-13T22:47:39.429Z,2.33
2018-04-13T22:50:06.942Z,2.20
2018-04-13T22:52:34.453Z,2.10
2018-04-13T22:55:01.942Z,1.97
2018-04-13T22:57:29.449Z,2.00
2018-04-13T22:59:56.946Z,1.90
2018-04-13T23:02:24.446Z,2.10
2018-04-13T23:04:52.018Z,1.97
2018-04-13T23:07:19.485Z,2.10
2018-04-13T23:09:46.968Z,2.20
2018-04-13T23:12:14.498Z,2.37
2018-04-13T23:14:41.991Z,2.00
2018-04-13T23:17:09.486Z,2.00
2018-04-13T23:19:37.007Z,2.00
2018-04-13T23:22:04.513Z,2.10
2018-04-13T23:24:32.254Z,2.07
2018-04-13T23:26:59.770Z,2.23
2018-04-13T23:29:27.262Z,2.20
2018-04-13T23:31:54.790Z,2.00
2018-04-13T23:34:22.296Z,2.00
2018-04-13T23:36:49.777Z,2.00
2018-04-13T23:39:17.265Z,2.10
2018-04-13T23:41:44.773Z,2.00
2018-04-13T23:44:12.256Z,2.23
2018-04-13T23:46:39.745Z,2.40
2018-04-13T23:49:07.255Z,2.00
2018-04-13T23:51:34.745Z,1.90
2018-04-13T23:54:02.284Z,2.30
2018-04-13T23:56:29.769Z,2.20
2018-04-13T23:58:57.257Z,2.20
